createdAt,value
2018-11-03T00:01:09.001Z,10.20
2018-11-03T00:03:37.227Z,10.30
2018-11-03T00:06:05.496Z,10.20
2018-11-03T00:08:33.751Z,10.20
2018-11-03T00:11:01.982Z,10.10
2018-11-03T00:13:30.231Z,10.00
2018-11-03T00:15:58.481Z,10.00
2018-11-03T00:18:26.714Z,10.00
2018-11-03T00:20:54.934Z,9.90
2018-11-03T00:23:23.195Z,9.80
2018-11-03T00:25:51.426Z,9.80
2018-11-03T00:28:19.663Z,9.80
2018-11-03T00:30:47.927Z,9.80
2018-11-03T00:33:16.170Z,9.90
2018-11-03T00:35:44.402Z,9.80
2018-11-03T00:38:12.728Z,9.80
2018-11-03T00:40:41.019Z,9.70
2018-11-03T00:43:09.196Z,9.80
2018-11-03T00:45:37.529Z,9.90
2018-11-03T00:48:06.159Z,9.90
2018-11-03T00:50:34.389Z,9.90
2018-11-03T00:53:02.616Z,9.90
2018-11-03T00:55:30.844Z,9.90
2018-11-03T00:57:59.092Z,9.90
2018-11-03T01:00:27.360Z,9.90
2018-11-03T01:02:55.590Z,10.00
2018-11-03T01:05:23.819Z,9.90
2018-11-03T01:07:52.139Z,10.00
2018-11-03T01:10:20.359Z,9.90
2018-11-03T01:12:48.590Z,9.80
2018-11-03T01:15:17.959Z,9.90
2018-11-03T01:17:46.300Z,9.90
2018-11-03T01:20:16.677Z,9.80
2018-11-03T01:22:45.040Z,9.90
2018-11-03T01:25:13.266Z,10.00
2018-11-03T01:27:41.532Z,10.00
2018-11-03T01:30:13.744Z,9.90
2018-11-03T01:32:42.173Z,10.00
2018-11-03T01:35:10.706Z,9.90
2018-11-03T01:37:39.515Z,9.80
2018-11-03T01:40:08.838Z,9.80
2018-11-03T01:42:37.096Z,9.90
2018-11-03T01:45:06.334Z,9.80
2018-11-03T01:47:34.739Z,9.70
2018-11-03T01:50:03.004Z,9.80
2018-11-03T01:52:31.291Z,9.80
2018-11-03T01:54:59.540Z,9.80
2018-11-03T01:57:27.763Z,9.80
2018-11-03T01:59:56.014Z,9.80
2018-11-03T02:02:24.248Z,9.90
2018-11-03T02:04:52.479Z,9.80
2018-11-03T02:07:20.805Z,9.70
2018-11-03T02:09:49.043Z,9.70
2018-11-03T02:12:17.287Z,9.70
2018-11-03T02:14:45.548Z,9.70
2018-11-03T02:17:13.774Z,9.80
2018-11-03T02:19:42.006Z,9.70
2018-11-03T02:22:10.237Z,9.70
2018-11-03T02:24:38.476Z,9.60
2018-11-03T02:27:06.712Z,9.40
2018-11-03T02:29:35.060Z,9.50
2018-11-03T02:32:03.317Z,9.40
2018-11-03T02:34:31.531Z,9.20
2018-11-03T02:36:59.755Z,9.30
2018-11-03T02:39:27.991Z,9.40
2018-11-03T02:41:56.233Z,9.30
2018-11-03T02:44:27.757Z,9.20
2018-11-03T02:46:56.047Z,9.00
2018-11-03T02:49:24.233Z,9.00
2018-11-03T02:51:52.549Z,8.90
2018-11-03T02:54:20.775Z,8.90
2018-11-03T02:56:49.018Z,8.80
2018-11-03T02:59:17.283Z,8.80
2018-11-03T03:01:45.510Z,8.70
2018-11-03T03:04:13.753Z,8.80
2018-11-03T03:06:42.003Z,8.70
2018-11-03T03:09:10.231Z,8.50
2018-11-03T03:11:38.476Z,8.50
2018-11-03T03:14:06.744Z,8.30
2018-11-03T03:16:34.996Z,8.30
2018-11-03T03:19:03.244Z,8.30
2018-11-03T03:21:31.511Z,8.30
2018-11-03T03:23:59.739Z,8.30
2018-11-03T03:26:27.956Z,8.00
2018-11-03T03:28:56.243Z,8.00
2018-11-03T03:31:24.430Z,8.00
2018-11-03T03:33:52.650Z,7.90
2018-11-03T03:36:20.928Z,7.90
2018-11-03T03:38:49.141Z,7.80
2018-11-03T03:41:17.374Z,7.70
2018-11-03T03:43:45.637Z,7.70
2018-11-03T03:46:13.836Z,7.70
2018-11-03T03:48:42.207Z,7.70
2018-11-03T03:51:10.463Z,7.60
2018-11-03T03:53:38.716Z,7.50
2018-11-03T03:56:06.953Z,7.60
2018-11-03T03:58:35.575Z,7.50
2018-11-03T04:01:03.867Z,7.50
2018-11-03T04:03:32.067Z,7.50
2018-11-03T04:06:00.330Z,7.50
2018-11-03T04:08:28.559Z,7.50
2018-11-03T04:10:56.790Z,7.30
2018-11-03T04:13:25.035Z,7.40
2018-11-03T04:15:53.240Z,7.30
2018-11-03T04:18:21.475Z,7.20
2018-11-03T04:20:49.761Z,7.10
2018-11-03T04:23:17.947Z,7.10
2018-11-03T04:25:46.208Z,7.20
2018-11-03T04:28:14.540Z,7.20
2018-11-03T04:30:42.781Z,7.20
2018-11-03T04:33:11.024Z,7.20
2018-11-03T04:35:39.255Z,7.30
2018-11-03T04:38:07.492Z,7.20
2018-11-03T04:40:35.721Z,7.20
2018-11-03T04:43:04.050Z,7.30
2018-11-03T04:45:32.308Z,7.20
2018-11-03T04:48:00.535Z,7.20
2018-11-03T04:50:28.873Z,7.30
2018-11-03T04:52:57.081Z,7.30
2018-11-03T04:55:25.347Z,7.40
2018-11-03T04:57:53.546Z,7.40
2018-11-03T05:00:21.782Z,7.40
2018-11-03T05:02:49.999Z,7.40
2018-11-03T05:05:18.258Z,7.30
2018-11-03T05:07:46.487Z,7.40
2018-11-03T05:10:14.762Z,7.20
2018-11-03T05:12:42.992Z,7.20
2018-11-03T05:15:11.227Z,7.30
2018-11-03T05:17:39.476Z,7.30
2018-11-03T05:20:07.743Z,7.30
2018-11-03T05:22:35.978Z,7.40
2018-11-03T05:25:04.232Z,7.30
2018-11-03T05:27:32.502Z,7.40
2018-11-03T05:30:00.735Z,7.50
2018-11-03T05:32:28.962Z,7.50
2018-11-03T05:34:57.224Z,7.30
2018-11-03T05:37:25.448Z,7.30
2018-11-03T05:39:53.707Z,7.20
2018-11-03T05:42:21.956Z,7.20
2018-11-03T05:44:50.179Z,7.20
2018-11-03T05:47:18.430Z,7.30
2018-11-03T05:49:46.695Z,7.30
2018-11-03T05:52:14.922Z,7.30
2018-11-03T05:54:43.164Z,7.20
2018-11-03T05:57:11.416Z,7.10
2018-11-03T05:59:39.652Z,7.20
2018-11-03T06:02:07.889Z,7.20
2018-11-03T06:04:36.307Z,7.20
2018-11-03T06:07:04.585Z,7.20
2018-11-03T06:09:32.823Z,7.20
2018-11-03T06:12:01.142Z,7.10
2018-11-03T06:14:29.412Z,6.80
2018-11-03T06:16:57.622Z,6.80
2018-11-03T06:19:25.863Z,6.90
2018-11-03T06:21:54.120Z,6.90
2018-11-03T06:24:22.333Z,6.90
2018-11-03T06:26:50.627Z,6.80
2018-11-03T06:29:19.246Z,6.70
2018-11-03T06:31:48.322Z,6.50
2018-11-03T06:34:16.959Z,6.50
2018-11-03T06:36:45.905Z,6.60
2018-11-03T06:39:14.920Z,6.60
2018-11-03T06:41:43.155Z,6.50
2018-11-03T06:44:11.390Z,6.50
2018-11-03T06:46:39.668Z,6.50
2018-11-03T06:49:13.282Z,6.50
2018-11-03T06:51:41.671Z,6.40
2018-11-03T06:54:09.886Z,6.50
2018-11-03T06:56:38.136Z,6.50
2018-11-03T06:59:06.391Z,6.40
2018-11-03T07:01:34.680Z,6.50
2018-11-03T07:04:03.434Z,6.40
2018-11-03T07:06:31.671Z,6.40
2018-11-03T07:09:00.023Z,6.60
2018-11-03T07:11:28.560Z,6.60
2018-11-03T07:13:56.804Z,6.70
2018-11-03T07:16:25.027Z,6.60
2018-11-03T07:18:53.819Z,6.60
2018-11-03T07:21:22.044Z,6.70
2018-11-03T07:23:50.297Z,6.80
2018-11-03T07:26:18.581Z,6.90
2018-11-03T07:28:46.833Z,6.90
2018-11-03T07:31:15.060Z,7.10
2018-11-03T07:33:43.462Z,7.10
2018-11-03T07:36:11.725Z,7.10
2018-11-03T07:38:39.960Z,7.30
2018-11-03T07:41:08.271Z,7.30
2018-11-03T07:43:36.497Z,7.50
2018-11-03T07:46:05.177Z,7.60
2018-11-03T07:48:33.516Z,7.70
2018-11-03T07:51:01.749Z,7.80
2018-11-03T07:53:30.035Z,7.90
2018-11-03T07:55:58.298Z,8.00
2018-11-03T07:58:26.535Z,8.00
2018-11-03T08:00:54.779Z,8.10
2018-11-03T08:03:23.123Z,8.30
2018-11-03T08:05:51.355Z,8.40
2018-11-03T08:08:19.595Z,8.50
2018-11-03T08:10:47.856Z,8.50
2018-11-03T08:13:16.092Z,8.60
2018-11-03T08:15:44.438Z,8.80
2018-11-03T08:18:12.603Z,8.80
2018-11-03T08:20:40.844Z,9.00
2018-11-03T08:23:09.088Z,9.00
2018-11-03T08:25:37.397Z,8.90
2018-11-03T08:28:05.720Z,9.10
2018-11-03T08:30:33.952Z,9.20
2018-11-03T08:33:02.311Z,9.40
2018-11-03T08:35:30.647Z,9.50
2018-11-03T08:37:58.882Z,10.00
2018-11-03T08:40:27.135Z,10.60
2018-11-03T08:42:55.359Z,11.10
2018-11-03T08:45:23.602Z,11.90
2018-11-03T08:47:52.320Z,12.70
2018-11-03T08:50:20.576Z,13.60
2018-11-03T08:52:48.840Z,14.00
2018-11-03T08:55:17.343Z,14.50
2018-11-03T08:57:45.592Z,14.80
2018-11-03T09:00:15.073Z,14.70
2018-11-03T09:02:43.492Z,14.70
2018-11-03T09:05:12.343Z,14.50
2018-11-03T09:07:40.922Z,14.70
2018-11-03T09:10:12.166Z,14.60
2018-11-03T09:12:40.394Z,14.30
2018-11-03T09:15:11.022Z,14.00
2018-11-03T09:17:40.339Z,13.70
2018-11-03T09:20:10.472Z,13.60
2018-11-03T09:22:39.469Z,13.80
2018-11-03T09:25:10.718Z,14.00
2018-11-03T09:27:39.675Z,13.90
2018-11-03T09:30:10.595Z,14.00
2018-11-03T09:32:38.899Z,14.00
2018-11-03T09:35:07.768Z,14.00
2018-11-03T09:37:36.157Z,14.20
2018-11-03T09:40:05.111Z,14.40
2018-11-03T09:42:33.333Z,14.50
2018-11-03T09:45:01.599Z,14.50
2018-11-03T09:47:29.913Z,14.40
2018-11-03T09:49:58.207Z,14.20
2018-11-03T09:52:26.523Z,14.10
2018-11-03T09:54:54.754Z,14.00
2018-11-03T09:57:22.998Z,14.10
2018-11-03T09:59:51.301Z,14.40
2018-11-03T10:02:19.553Z,14.40
2018-11-03T10:04:47.791Z,14.40
2018-11-03T10:07:16.035Z,14.40
2018-11-03T10:09:44.286Z,14.50
2018-11-03T10:12:12.601Z,14.50
2018-11-03T10:14:41.098Z,14.60
2018-11-03T10:17:09.323Z,14.70
2018-11-03T10:19:37.622Z,14.50
2018-11-03T10:22:05.952Z,14.60
2018-11-03T10:24:34.115Z,14.70
2018-11-03T10:27:02.405Z,14.70
2018-11-03T10:29:30.643Z,15.00
2018-11-03T10:31:58.863Z,14.90
2018-11-03T10:34:27.083Z,15.00
2018-11-03T10:36:55.329Z,15.00
2018-11-03T10:39:35.205Z,15.30
2018-11-03T10:42:04.049Z,15.30
2018-11-03T10:44:32.316Z,15.40
2018-11-03T10:47:00.535Z,15.20
2018-11-03T10:49:28.847Z,15.00
2018-11-03T10:51:57.050Z,15.20
2018-11-03T10:54:25.295Z,15.40
2018-11-03T10:56:54.139Z,15.30
2018-11-03T10:59:22.401Z,15.30
2018-11-03T11:01:56.054Z,15.00
2018-11-03T11:05:30.225Z,15.00
2018-11-03T11:08:03.904Z,14.90
2018-11-03T11:10:37.642Z,14.80
2018-11-03T11:13:10.578Z,14.50
2018-11-03T11:15:38.856Z,14.30
2018-11-03T11:18:07.059Z,14.40
2018-11-03T11:20:35.332Z,14.60
2018-11-03T11:23:03.554Z,14.40
2018-11-03T11:25:31.847Z,14.60
2018-11-03T11:28:00.046Z,14.40
2018-11-03T11:30:33.674Z,14.40
2018-11-03T11:33:02.025Z,14.50
2018-11-03T11:35:30.252Z,14.40
2018-11-03T11:37:58.477Z,14.30
2018-11-03T11:40:26.995Z,14.30
2018-11-03T11:42:55.228Z,14.20
2018-11-03T11:45:23.455Z,14.10
2018-11-03T11:47:51.772Z,14.30
2018-11-03T11:50:20.435Z,14.50
2018-11-03T11:52:48.662Z,14.60
2018-11-03T11:55:16.956Z,14.50
2018-11-03T11:57:45.174Z,14.50
2018-11-03T12:00:13.414Z,14.50
2018-11-03T12:02:41.747Z,14.60
2018-11-03T12:05:10.016Z,14.70
2018-11-03T12:07:38.255Z,14.80
2018-11-03T12:10:06.574Z,14.80
2018-11-03T12:12:34.740Z,14.70
2018-11-03T12:15:02.959Z,14.70
2018-11-03T12:17:31.192Z,14.90
2018-11-03T12:19:59.411Z,14.90
2018-11-03T12:22:27.631Z,14.90
2018-11-03T12:24:56.243Z,14.80
2018-11-03T12:27:24.486Z,14.80
2018-11-03T12:29:52.739Z,14.80
2018-11-03T12:32:21.014Z,14.80
2018-11-03T12:34:49.241Z,15.00
2018-11-03T12:37:17.482Z,14.80
2018-11-03T12:39:45.803Z,14.80
2018-11-03T12:42:14.052Z,14.90
2018-11-03T12:44:42.289Z,14.80
2018-11-03T12:47:10.696Z,14.80
2018-11-03T12:49:38.928Z,14.80
2018-11-03T12:52:07.172Z,14.70
2018-11-03T12:54:35.420Z,14.60
2018-11-03T12:57:03.634Z,14.60
2018-11-03T12:59:31.848Z,14.50
2018-11-03T13:02:00.377Z,14.50
2018-11-03T13:04:28.763Z,14.50
2018-11-03T13:06:57.083Z,14.50
2018-11-03T13:09:25.374Z,14.40
2018-11-03T13:11:53.596Z,14.30
2018-11-03T13:14:21.831Z,14.10
2018-11-03T13:16:50.179Z,14.10
2018-11-03T13:19:18.406Z,14.10
2018-11-03T13:21:46.751Z,14.10
2018-11-03T13:24:14.992Z,14.20
2018-11-03T13:26:43.227Z,14.20
2018-11-03T13:29:11.442Z,14.20
2018-11-03T13:31:39.676Z,14.20
2018-11-03T13:34:07.895Z,14.20
2018-11-03T13:36:36.181Z,14.20
2018-11-03T13:39:06.448Z,14.20
2018-11-03T13:41:34.689Z,14.10
2018-11-03T13:44:02.922Z,14.10
2018-11-03T13:46:31.259Z,14.10
2018-11-03T13:48:59.495Z,14.10
2018-11-03T13:51:27.737Z,14.10
2018-11-03T13:53:56.030Z,14.00
2018-11-03T13:56:24.259Z,14.00
2018-11-03T13:58:53.587Z,14.00
2018-11-03T14:01:21.883Z,13.90
2018-11-03T14:03:50.109Z,14.00
2018-11-03T14:06:18.348Z,13.80
2018-11-03T14:08:46.575Z,13.80
2018-11-03T14:11:14.899Z,13.90
2018-11-03T14:13:43.082Z,13.80
2018-11-03T14:16:11.317Z,13.70
2018-11-03T14:18:39.587Z,13.70
2018-11-03T14:21:07.820Z,13.60
2018-11-03T14:23:36.214Z,13.60
2018-11-03T14:26:04.436Z,13.50
2018-11-03T14:28:32.665Z,13.60
2018-11-03T14:31:00.931Z,13.60
2018-11-03T14:33:29.285Z,13.60
2018-11-03T14:35:57.440Z,13.40
2018-11-03T14:38:25.754Z,13.50
2018-11-03T14:40:53.988Z,13.50
2018-11-03T14:43:22.266Z,13.50
2018-11-03T14:45:50.825Z,13.40
2018-11-03T14:48:19.108Z,13.30
2018-11-03T14:50:49.039Z,13.30
2018-11-03T14:53:17.392Z,13.30
2018-11-03T14:55:45.604Z,13.20
2018-11-03T14:58:13.850Z,13.30
2018-11-03T15:00:42.189Z,13.30
2018-11-03T15:03:10.423Z,13.30
2018-11-03T15:05:38.631Z,13.20
2018-11-03T15:08:06.874Z,13.30
2018-11-03T15:10:35.101Z,13.30
2018-11-03T15:13:03.322Z,13.30
2018-11-03T15:15:31.559Z,13.30
2018-11-03T15:17:59.767Z,13.30
2018-11-03T15:20:27.979Z,13.20
2018-11-03T15:22:56.288Z,13.30
2018-11-03T15:25:24.503Z,13.20
2018-11-03T15:27:52.722Z,13.20
2018-11-03T15:30:20.969Z,13.10
2018-11-03T15:32:50.158Z,13.10
2018-11-03T15:35:18.384Z,13.10
2018-11-03T15:37:48.830Z,13.10
2018-11-03T15:40:17.075Z,13.10
2018-11-03T15:42:45.411Z,13.10
2018-11-03T15:45:16.870Z,12.90
2018-11-03T15:47:45.435Z,12.90
2018-11-03T15:50:14.527Z,12.90
2018-11-03T15:52:43.334Z,12.90
2018-11-03T15:55:11.577Z,12.90
2018-11-03T15:57:39.835Z,12.90
2018-11-03T16:00:14.968Z,12.90
2018-11-03T16:02:43.239Z,12.90
2018-11-03T16:05:11.483Z,12.80
2018-11-03T16:07:39.759Z,12.80
2018-11-03T16:10:08.828Z,12.80
2018-11-03T16:12:37.152Z,12.80
2018-11-03T16:15:06.103Z,12.80
2018-11-03T16:17:34.338Z,12.80
2018-11-03T16:20:02.607Z,12.80
2018-11-03T16:22:30.895Z,12.70
2018-11-03T16:24:59.131Z,12.70
2018-11-03T16:27:27.344Z,12.70
2018-11-03T16:29:55.626Z,12.80
2018-11-03T16:32:23.916Z,12.70
2018-11-03T16:34:52.111Z,12.70
2018-11-03T16:37:20.503Z,12.70
2018-11-03T16:39:48.742Z,12.70
2018-11-03T16:42:16.982Z,12.60
2018-11-03T16:44:45.223Z,12.60
2018-11-03T16:47:13.614Z,12.60
2018-11-03T16:49:41.840Z,12.60
2018-11-03T16:52:10.130Z,12.60
2018-11-03T16:54:38.367Z,12.50
2018-11-03T16:57:06.614Z,12.60
2018-11-03T16:59:34.888Z,12.60
2018-11-03T17:02:03.152Z,12.60
2018-11-03T17:04:31.403Z,12.50
2018-11-03T17:06:59.715Z,12.50
2018-11-03T17:09:27.888Z,12.50
2018-11-03T17:11:56.164Z,12.50
2018-11-03T17:14:24.406Z,12.40
2018-11-03T17:16:52.655Z,12.40
2018-11-03T17:19:20.900Z,12.50
2018-11-03T17:21:49.171Z,12.60
2018-11-03T17:24:17.415Z,12.50
2018-11-03T17:26:45.639Z,12.50
2018-11-03T17:29:13.896Z,12.50
2018-11-03T17:31:42.121Z,12.50
2018-11-03T17:34:10.406Z,12.50
2018-11-03T17:36:38.722Z,12.40
2018-11-03T17:39:08.791Z,12.40
2018-11-03T17:41:37.031Z,12.40
2018-11-03T17:44:05.939Z,12.40
2018-11-03T17:46:34.843Z,12.50
2018-11-03T17:49:03.067Z,12.40
2018-11-03T17:51:31.352Z,12.40
2018-11-03T17:53:59.685Z,12.40
2018-11-03T17:56:27.952Z,12.40
2018-11-03T17:58:56.199Z,12.30
2018-11-03T18:01:24.632Z,12.40
2018-11-03T18:03:52.767Z,12.30
2018-11-03T18:06:20.992Z,12.30
2018-11-03T18:08:49.267Z,12.30
2018-11-03T18:11:17.540Z,12.20
2018-11-03T18:13:45.841Z,12.30
2018-11-03T18:16:14.111Z,12.30
2018-11-03T18:18:42.378Z,12.40
2018-11-03T18:21:10.773Z,12.40
2018-11-03T18:23:39.602Z,12.30
2018-11-03T18:26:07.903Z,12.40
2018-11-03T18:28:36.115Z,12.40
2018-11-03T18:31:04.797Z,12.40
2018-11-03T18:33:33.136Z,12.40
2018-11-03T18:36:01.263Z,12.40
2018-11-03T18:38:29.527Z,12.40
2018-11-03T18:40:57.770Z,12.40
2018-11-03T18:43:26.058Z,12.30
2018-11-03T18:45:54.338Z,12.40
2018-11-03T18:48:22.858Z,12.40
2018-11-03T18:50:51.180Z,12.40
2018-11-03T18:53:19.398Z,12.30
2018-11-03T18:55:47.625Z,12.30
2018-11-03T18:58:15.975Z,12.40
2018-11-03T19:00:44.244Z,12.30
2018-11-03T19:03:12.460Z,12.20
2018-11-03T19:05:41.042Z,12.30
2018-11-03T19:08:09.307Z,12.30
2018-11-03T19:10:37.547Z,12.20
2018-11-03T19:13:05.844Z,12.20
2018-11-03T19:15:34.075Z,12.20
2018-11-03T19:18:02.344Z,12.10
2018-11-03T19:20:30.615Z,12.20
2018-11-03T19:22:58.878Z,12.20
2018-11-03T19:25:27.108Z,12.20
2018-11-03T19:27:55.389Z,12.20
2018-11-03T19:30:23.727Z,12.20
2018-11-03T19:32:51.891Z,12.10
2018-11-03T19:35:20.155Z,12.10
2018-11-03T19:37:48.395Z,12.20
2018-11-03T19:40:16.643Z,12.20
2018-11-03T19:42:44.958Z,12.20
2018-11-03T19:45:13.280Z,12.10
2018-11-03T19:47:41.459Z,12.10
2018-11-03T19:50:10.177Z,12.10
2018-11-03T19:52:38.411Z,12.10
2018-11-03T19:55:09.617Z,12.10
2018-11-03T19:57:37.903Z,12.20
2018-11-03T20:00:08.911Z,12.00
2018-11-03T20:02:37.243Z,12.10
2018-11-03T20:05:06.023Z,12.00
2018-11-03T20:07:34.302Z,12.00
2018-11-03T20:10:02.593Z,12.00
2018-11-03T20:12:30.803Z,12.00
2018-11-03T20:14:59.058Z,12.10
2018-11-03T20:17:27.270Z,12.10
2018-11-03T20:19:55.548Z,12.00
2018-11-03T20:22:23.775Z,12.10
2018-11-03T20:24:52.019Z,12.00
2018-11-03T20:27:20.594Z,12.00
2018-11-03T20:29:48.851Z,11.90
2018-11-03T20:32:17.090Z,12.00
2018-11-03T20:34:45.332Z,12.00
2018-11-03T20:37:13.576Z,12.00
2018-11-03T20:39:41.803Z,12.10
2018-11-03T20:42:10.127Z,12.10
2018-11-03T20:44:38.371Z,12.10
2018-11-03T20:47:06.594Z,12.00
2018-11-03T20:49:34.858Z,12.00
2018-11-03T20:52:03.091Z,12.00
2018-11-03T20:54:31.331Z,12.00
2018-11-03T20:56:59.573Z,12.00
2018-11-03T20:59:27.800Z,12.00
2018-11-03T21:01:56.630Z,12.00
2018-11-03T21:04:24.890Z,12.00
2018-11-03T21:06:53.188Z,12.00
2018-11-03T21:09:21.431Z,12.00
2018-11-03T21:11:49.715Z,11.90
2018-11-03T21:14:17.969Z,11.90
2018-11-03T21:16:46.227Z,12.00
2018-11-03T21:19:14.470Z,11.90
2018-11-03T21:21:42.706Z,11.90
2018-11-03T21:24:11.314Z,11.90
2018-11-03T21:26:39.409Z,11.90
2018-11-03T21:29:08.170Z,11.90
2018-11-03T21:31:36.495Z,11.80
2018-11-03T21:34:05.116Z,11.80
2018-11-03T21:36:33.345Z,11.90
2018-11-03T21:39:01.606Z,11.90
2018-11-03T21:41:29.906Z,11.80
2018-11-03T21:43:58.131Z,11.70
2018-11-03T21:46:26.425Z,11.70
2018-11-03T21:48:54.622Z,11.70
2018-11-03T21:51:22.875Z,11.70
2018-11-03T21:53:51.127Z,11.70
2018-11-03T21:56:19.378Z,11.70
2018-11-03T21:58:47.663Z,11.60
2018-11-03T22:01:15.910Z,11.60
2018-11-03T22:03:44.162Z,11.60
2018-11-03T22:06:12.412Z,11.50
2018-11-03T22:08:40.627Z,11.50
2018-11-03T22:11:08.897Z,11.50
2018-11-03T22:13:37.139Z,11.50
2018-11-03T22:16:05.408Z,11.40
2018-11-03T22:18:33.691Z,11.50
2018-11-03T22:21:01.979Z,11.40
2018-11-03T22:23:30.266Z,11.50
2018-11-03T22:25:58.612Z,11.40
2018-11-03T22:28:26.841Z,11.40
2018-11-03T22:30:55.068Z,11.40
2018-11-03T22:33:23.368Z,11.30
2018-11-03T22:35:51.616Z,11.40
2018-11-03T22:38:19.845Z,11.50
2018-11-03T22:40:48.179Z,11.40
2018-11-03T22:43:16.415Z,11.40
2018-11-03T22:45:44.651Z,11.50
2018-11-03T22:48:12.977Z,11.40
2018-11-03T22:50:41.208Z,11.40
2018-11-03T22:53:09.423Z,11.40
2018-11-03T22:55:37.659Z,11.40
2018-11-03T22:58:06.212Z,11.40
2018-11-03T23:00:38.699Z,11.50
2018-11-03T23:03:06.923Z,11.50
2018-11-03T23:05:35.151Z,11.50
2018-11-03T23:08:03.399Z,11.50
2018-11-03T23:10:31.681Z,11.40
2018-11-03T23:13:00.041Z,11.50
2018-11-03T23:15:28.223Z,11.50
2018-11-03T23:17:56.455Z,11.40
2018-11-03T23:20:24.691Z,11.40
2018-11-03T23:22:52.961Z,11.40
2018-11-03T23:25:21.183Z,11.50
2018-11-03T23:27:49.437Z,11.40
2018-11-03T23:30:17.860Z,11.40
2018-11-03T23:32:46.080Z,11.40
2018-11-03T23:35:14.607Z,11.40
2018-11-03T23:37:43.232Z,11.30
2018-11-03T23:40:11.867Z,11.30
2018-11-03T23:42:40.124Z,11.40
2018-11-03T23:45:09.677Z,11.40
2018-11-03T23:47:38.068Z,11.40
2018-11-03T23:50:08.242Z,11.40
2018-11-03T23:52:36.755Z,11.40
2018-11-03T23:55:06.022Z,11.30
2018-11-03T23:57:34.283Z,11.30
